sensor_id;sensor_type;location;lat;lon;timestamp;pressure;altitude;pressure_sealevel;temperature;humidity
35989;BME280;22064;42.672;23.282;2024-03-02T00:00:11;94067.72;;;6.52;100.00
35989;BME280;22064;42.672;23.282;2024-03-02T00:02:53;94081.81;;;6.56;100.00
35989;BME280;22064;42.672;23.282;2024-03-02T00:05:32;94086.78;;;6.52;100.00
35989;BME280;22064;42.672;23.282;2024-03-02T00:08:11;94091.19;;;6.57;100.00
35989;BME280;22064;42.672;23.282;2024-03-02T00:10:48;94081.84;;;6.36;100.00
35989;BME280;22064;42.672;23.282;2024-03-02T00:13:14;94088.34;;;6.59;100.00
35989;BME280;22064;42.672;23.282;2024-03-02T00:15:58;94091.19;;;6.62;100.00
35989;BME280;22064;42.672;23.282;2024-03-02T00:18:40;94089.09;;;6.74;100.00
35989;BME280;22064;42.672;23.282;2024-03-02T00:21:12;94099.22;;;6.96;100.00
35989;BME280;22064;42.672;23.282;2024-03-02T00:23:41;94103.16;;;6.79;100.00
35989;BME280;22064;42.672;23.282;2024-03-02T00:26:11;94083.59;;;6.71;100.00
35989;BME280;22064;42.672;23.282;2024-03-02T00:28:42;94097.94;;;6.79;100.00
35989;BME280;22064;42.672;23.282;2024-03-02T00:31:15;94101.84;;;6.81;100.00
35989;BME280;22064;42.672;23.282;2024-03-02T00:33:49;94104.63;;;7.15;100.00
35989;BME280;22064;42.672;23.282;2024-03-02T00:36:26;94094.59;;;7.33;100.00
35989;BME280;22064;42.672;23.282;2024-03-02T00:38:59;94100.19;;;7.65;100.00
35989;BME280;22064;42.672;23.282;2024-03-02T00:41:33;94091.63;;;7.55;100.00
35989;BME280;22064;42.672;23.282;2024-03-02T00:44:14;94090.44;;;7.32;100.00
35989;BME280;22064;42.672;23.282;2024-03-02T00:47:05;94087.06;;;7.31;100.00
35989;BME280;22064;42.672;23.282;2024-03-02T00:49:31;94094.53;;;7.53;100.00
35989;BME280;22064;42.672;23.282;2024-03-02T00:51:59;94078.47;;;7.70;100.00
35989;BME280;22064;42.672;23.282;2024-03-02T00:54:31;94090.22;;;7.78;100.00
35989;BME280;22064;42.672;23.282;2024-03-02T00:56:58;94097.56;;;7.76;100.00
35989;BME280;22064;42.672;23.282;2024-03-02T00:59:29;94093.91;;;7.66;100.00
35989;BME280;22064;42.672;23.282;2024-03-02T01:02:06;94081.75;;;7.96;100.00
35989;BME280;22064;42.672;23.282;2024-03-02T01:04:35;94102.41;;;7.93;100.00
35989;BME280;22064;42.672;23.282;2024-03-02T01:07:03;94096.75;;;7.70;100.00
35989;BME280;22064;42.672;23.282;2024-03-02T01:10:07;94085.44;;;6.75;100.00
35989;BME280;22064;42.672;23.282;2024-03-02T01:12:33;94087.38;;;7.14;100.00
35989;BME280;22064;42.672;23.282;2024-03-02T01:15:02;94078.41;;;7.36;100.00
35989;BME280;22064;42.672;23.282;2024-03-02T01:17:31;94077.63;;;7.30;100.00
35989;BME280;22064;42.672;23.282;2024-03-02T01:19:59;94071.78;;;7.49;100.00
35989;BME280;22064;42.672;23.282;2024-03-02T01:22:28;94059.88;;;7.82;100.00
35989;BME280;22064;42.672;23.282;2024-03-02T01:25:09;94071.50;;;8.00;100.00
35989;BME280;22064;42.672;23.282;2024-03-02T01:27:35;94057.00;;;7.73;100.00
35989;BME280;22064;42.672;23.282;2024-03-02T01:30:04;94062.13;;;7.94;100.00
35989;BME280;22064;42.672;23.282;2024-03-02T01:32:39;94061.03;;;8.00;100.00
35989;BME280;22064;42.672;23.282;2024-03-02T01:35:11;94062.22;;;8.18;100.00
35989;BME280;22064;42.672;23.282;2024-03-02T01:37:57;94057.25;;;7.82;100.00
35989;BME280;22064;42.672;23.282;2024-03-02T01:40:55;94059.00;;;7.92;100.00
35989;BME280;22064;42.672;23.282;2024-03-02T01:43:24;94057.53;;;7.80;100.00
35989;BME280;22064;42.672;23.282;2024-03-02T01:46:03;94058.84;;;8.12;100.00
35989;BME280;22064;42.672;23.282;2024-03-02T01:48:31;94055.16;;;8.18;100.00
35989;BME280;22064;42.672;23.282;2024-03-02T01:50:59;94055.59;;;8.25;100.00
35989;BME280;22064;42.672;23.282;2024-03-02T01:53:35;94045.13;;;8.25;100.00
35989;BME280;22064;42.672;23.282;2024-03-02T01:56:10;94053.53;;;8.22;100.00
35989;BME280;22064;42.672;23.282;2024-03-02T01:58:43;94052.00;;;8.45;100.00
35989;BME280;22064;42.672;23.282;2024-03-02T02:01:19;94039.38;;;8.23;100.00
35989;BME280;22064;42.672;23.282;2024-03-02T02:03:56;94050.19;;;8.46;100.00
35989;BME280;22064;42.672;23.282;2024-03-02T02:06:29;94050.13;;;8.51;100.00
35989;BME280;22064;42.672;23.282;2024-03-02T02:09:03;94059.28;;;8.24;100.00
35989;BME280;22064;42.672;23.282;2024-03-02T02:11:30;94049.16;;;8.42;100.00
35989;BME280;22064;42.672;23.282;2024-03-02T02:14:26;94052.00;;;8.45;100.00
35989;BME280;22064;42.672;23.282;2024-03-02T02:17:08;94052.69;;;8.56;100.00
35989;BME280;22064;42.672;23.282;2024-03-02T02:19:37;94055.41;;;8.70;100.00
35989;BME280;22064;42.672;23.282;2024-03-02T02:22:15;94044.69;;;8.42;100.00
35989;BME280;22064;42.672;23.282;2024-03-02T02:25:15;94038.97;;;8.40;100.00
35989;BME280;22064;42.672;23.282;2024-03-02T02:28:08;94050.97;;;8.70;100.00
35989;BME280;22064;42.672;23.282;2024-03-02T02:30:36;94057.31;;;8.40;100.00
35989;BME280;22064;42.672;23.282;2024-03-02T02:33:04;94052.81;;;8.46;100.00
35989;BME280;22064;42.672;23.282;2024-03-02T02:35:37;94048.16;;;8.08;100.00
35989;BME280;22064;42.672;23.282;2024-03-02T02:38:14;94047.63;;;7.67;100.00
35989;BME280;22064;42.672;23.282;2024-03-02T02:40:40;94052.63;;;6.13;100.00
35989;BME280;22064;42.672;23.282;2024-03-02T02:43:08;94057.56;;;6.45;100.00
35989;BME280;22064;42.672;23.282;2024-03-02T02:45:43;94067.72;;;6.52;100.00
35989;BME280;22064;42.672;23.282;2024-03-02T02:48:30;94062.81;;;6.10;100.00
35989;BME280;22064;42.672;23.282;2024-03-02T02:51:03;94056.78;;;5.73;100.00
35989;BME280;22064;42.672;23.282;2024-03-02T02:53:34;94056.78;;;5.99;100.00
35989;BME280;22064;42.672;23.282;2024-03-02T02:56:05;94071.38;;;5.90;100.00
35989;BME280;22064;42.672;23.282;2024-03-02T02:58:36;94062.28;;;5.92;100.00
35989;BME280;22064;42.672;23.282;2024-03-02T03:01:10;94058.06;;;5.45;100.00
35989;BME280;22064;42.672;23.282;2024-03-02T03:03:50;94064.38;;;6.00;100.00
35989;BME280;22064;42.672;23.282;2024-03-02T03:06:17;94058.13;;;5.81;100.00
35989;BME280;22064;42.672;23.282;2024-03-02T03:09:03;94060.16;;;5.64;100.00
35989;BME280;22064;42.672;23.282;2024-03-02T03:11:32;94058.09;;;5.76;100.00
35989;BME280;22064;42.672;23.282;2024-03-02T03:14:03;94064.59;;;5.83;100.00
35989;BME280;22064;42.672;23.282;2024-03-02T03:16:30;94065.13;;;5.75;100.00
35989;BME280;22064;42.672;23.282;2024-03-02T03:18:59;94063.25;;;5.35;100.00
35989;BME280;22064;42.672;23.282;2024-03-02T03:21:26;94066.16;;;5.54;100.00
35989;BME280;22064;42.672;23.282;2024-03-02T03:23:55;94060.97;;;5.79;100.00
35989;BME280;22064;42.672;23.282;2024-03-02T03:26:29;94049.50;;;5.70;100.00
35989;BME280;22064;42.672;23.282;2024-03-02T03:28:59;94056.25;;;5.71;100.00
35989;BME280;22064;42.672;23.282;2024-03-02T03:31:30;94055.63;;;5.08;100.00
35989;BME280;22064;42.672;23.282;2024-03-02T03:34:03;94068.19;;;5.36;100.00
35989;BME280;22064;42.672;23.282;2024-03-02T03:36:34;94057.59;;;5.94;100.00
35989;BME280;22064;42.672;23.282;2024-03-02T03:39:01;94062.00;;;5.89;100.00
35989;BME280;22064;42.672;23.282;2024-03-02T03:41:32;94064.84;;;5.56;100.00
35989;BME280;22064;42.672;23.282;2024-03-02T03:44:19;94065.13;;;5.50;100.00
35989;BME280;22064;42.672;23.282;2024-03-02T03:46:50;94066.94;;;5.59;100.00
35989;BME280;22064;42.672;23.282;2024-03-02T03:49:51;94078.69;;;5.62;100.00
35989;BME280;22064;42.672;23.282;2024-03-02T03:52:26;94062.53;;;6.06;100.00
35989;BME280;22064;42.672;23.282;2024-03-02T03:54:54;94068.25;;;5.77;100.00
35989;BME280;22064;42.672;23.282;2024-03-02T03:57:50;94068.00;;;5.79;100.00
35989;BME280;22064;42.672;23.282;2024-03-02T04:00:42;94061.19;;;5.47;100.00
35989;BME280;22064;42.672;23.282;2024-03-02T04:03:32;94064.59;;;5.53;100.00
35989;BME280;22064;42.672;23.282;2024-03-02T04:06:06;94056.00;;;5.57;100.00
35989;BME280;22064;42.672;23.282;2024-03-02T04:09:00;94058.34;;;5.59;100.00
35989;BME280;22064;42.672;23.282;2024-03-02T04:11:32;94054.19;;;5.89;100.00
35989;BME280;22064;42.672;23.282;2024-03-02T04:14:01;94052.09;;;6.37;100.00
35989;BME280;22064;42.672;23.282;2024-03-02T04:16:42;94061.50;;;6.22;100.00
35989;BME280;22064;42.672;23.282;2024-03-02T04:19:10;94053.91;;;6.51;100.00
35989;BME280;22064;42.672;23.282;2024-03-02T04:21:40;94053.66;;;6.53;100.00
35989;BME280;22064;42.672;23.282;2024-03-02T04:24:30;94057.84;;;6.03;100.00
35989;BME280;22064;42.672;23.282;2024-03-02T04:26:57;94061.47;;;5.71;100.00
35989;BME280;22064;42.672;23.282;2024-03-02T04:29:36;94065.63;;;5.47;100.00
35989;BME280;22064;42.672;23.282;2024-03-02T04:32:06;94069.84;;;6.09;100.00
35989;BME280;22064;42.672;23.282;2024-03-02T04:34:36;94064.09;;;6.02;100.00
35989;BME280;22064;42.672;23.282;2024-03-02T04:37:04;94065.66;;;6.44;100.00
35989;BME280;22064;42.672;23.282;2024-03-02T04:39:35;94061.47;;;6.43;100.00
35989;BME280;22064;42.672;23.282;2024-03-02T04:42:06;94073.22;;;6.20;100.00
35989;BME280;22064;42.672;23.282;2024-03-02T04:44:38;94072.19;;;6.31;100.00
35989;BME280;22064;42.672;23.282;2024-03-02T04:47:06;94078.72;;;6.18;100.00
35989;BME280;22064;42.672;23.282;2024-03-02T04:49:35;94069.84;;;6.19;100.00
35989;BME280;22064;42.672;23.282;2024-03-02T04:52:02;94076.88;;;6.09;100.00
35989;BME280;22064;42.672;23.282;2024-03-02T04:54:29;94059.41;;;5.73;100.00
35989;BME280;22064;42.672;23.282;2024-03-02T04:56:58;94074.00;;;5.79;100.00
35989;BME280;22064;42.672;23.282;2024-03-02T04:59:26;94078.69;;;5.82;100.00
35989;BME280;22064;42.672;23.282;2024-03-02T05:01:57;94070.84;;;5.77;100.00
35989;BME280;22064;42.672;23.282;2024-03-02T05:04:42;94073.47;;;5.82;100.00
35989;BME280;22064;42.672;23.282;2024-03-02T05:07:09;94079.72;;;6.17;100.00
35989;BME280;22064;42.672;23.282;2024-03-02T05:09:40;94084.19;;;6.06;100.00
35989;BME280;22064;42.672;23.282;2024-03-02T05:12:06;94074.50;;;5.76;100.00
35989;BME280;22064;42.672;23.282;2024-03-02T05:14:57;94081.81;;;5.74;100.00
35989;BME280;22064;42.672;23.282;2024-03-02T05:17:27;94092.75;;;5.71;100.00
35989;BME280;22064;42.672;23.282;2024-03-02T05:19:53;94086.50;;;5.62;100.00
35989;BME280;22064;42.672;23.282;2024-03-02T05:22:20;94101.84;;;5.64;100.00
35989;BME280;22064;42.672;23.282;2024-03-02T05:24:59;94104.75;;;5.72;100.00
35989;BME280;22064;42.672;23.282;2024-03-02T05:27:28;94101.09;;;5.63;100.00
35989;BME280;22064;42.672;23.282;2024-03-02T05:30:03;94103.63;;;5.38;100.00
35989;BME280;22064;42.672;23.282;2024-03-02T05:32:35;94100.47;;;5.25;100.00
35989;BME280;22064;42.672;23.282;2024-03-02T05:35:02;94109.84;;;5.36;100.00
35989;BME280;22064;42.672;23.282;2024-03-02T05:37:29;94113.28;;;5.47;100.00
35989;BME280;22064;42.672;23.282;2024-03-02T05:40:03;94109.63;;;5.43;100.00
35989;BME280;22064;42.672;23.282;2024-03-02T05:42:34;94068.59;;;4.98;100.00
35989;BME280;22064;42.672;23.282;2024-03-02T05:45:01;94110.13;;;5.40;100.00
35989;BME280;22064;42.672;23.282;2024-03-02T05:47:27;94093.78;;;5.65;100.00
35989;BME280;22064;42.672;23.282;2024-03-02T05:50:02;94117.53;;;5.89;100.00
35989;BME280;22064;42.672;23.282;2024-03-02T05:52:30;94116.78;;;6.04;100.00
35989;BME280;22064;42.672;23.282;2024-03-02T05:54:57;94121.44;;;6.02;100.00
35989;BME280;22064;42.672;23.282;2024-03-02T05:57:23;94119.66;;;6.13;100.00
35989;BME280;22064;42.672;23.282;2024-03-02T06:00:10;94121.22;;;6.44;100.00
35989;BME280;22064;42.672;23.282;2024-03-02T06:02:42;94116.75;;;6.14;100.00
35989;BME280;22064;42.672;23.282;2024-03-02T06:05:10;94116.53;;;6.36;100.00
35989;BME280;22064;42.672;23.282;2024-03-02T06:07:41;94117.59;;;6.35;100.00
35989;BME280;22064;42.672;23.282;2024-03-02T06:10:11;94106.81;;;6.83;100.00
35989;BME280;22064;42.672;23.282;2024-03-02T06:12:50;94120.28;;;7.15;100.00
35989;BME280;22064;42.672;23.282;2024-03-02T06:15:18;94109.31;;;7.18;100.00
35989;BME280;22064;42.672;23.282;2024-03-02T06:17:50;94123.81;;;7.45;100.00
35989;BME280;22064;42.672;23.282;2024-03-02T06:20:51;94125.34;;;7.51;100.00
35989;BME280;22064;42.672;23.282;2024-03-02T06:23:29;94125.34;;;7.56;100.00
35989;BME280;22064;42.672;23.282;2024-03-02T06:26:05;94127.00;;;7.37;100.00
35989;BME280;22064;42.672;23.282;2024-03-02T06:28:43;94095.06;;;6.85;100.00
35989;BME280;22064;42.672;23.282;2024-03-02T06:31:11;94127.75;;;6.62;100.00
35989;BME280;22064;42.672;23.282;2024-03-02T06:33:37;94110.47;;;6.77;100.00
35989;BME280;22064;42.672;23.282;2024-03-02T06:36:08;94120.88;;;6.97;100.00
35989;BME280;22064;42.672;23.282;2024-03-02T06:38:35;94129.88;;;7.30;100.00
35989;BME280;22064;42.672;23.282;2024-03-02T06:41:08;94121.94;;;7.56;100.00
35989;BME280;22064;42.672;23.282;2024-03-02T06:43:39;94133.59;;;7.84;100.00
35989;BME280;22064;42.672;23.282;2024-03-02T06:46:31;94133.75;;;7.98;100.00
35989;BME280;22064;42.672;23.282;2024-03-02T06:48:59;94132.47;;;7.95;100.00
35989;BME280;22064;42.672;23.282;2024-03-02T06:51:46;94129.97;;;7.70;100.00
35989;BME280;22064;42.672;23.282;2024-03-02T06:54:43;94131.81;;;7.69;100.00
35989;BME280;22064;42.672;23.282;2024-03-02T06:57:32;94134.63;;;7.83;100.00
35989;BME280;22064;42.672;23.282;2024-03-02T07:00:13;94136.59;;;8.01;100.00
35989;BME280;22064;42.672;23.282;2024-03-02T07:03:22;94139.09;;;8.22;100.00
35989;BME280;22064;42.672;23.282;2024-03-02T07:06:02;94139.75;;;7.98;100.00
35989;BME280;22064;42.672;23.282;2024-03-02T07:08:35;94134.75;;;8.02;100.00
35989;BME280;22064;42.672;23.282;2024-03-02T07:11:19;94141.06;;;8.01;100.00
35989;BME280;22064;42.672;23.282;2024-03-02T07:14:03;94142.34;;;8.08;100.00
35989;BME280;22064;42.672;23.282;2024-03-02T07:16:30;94145.44;;;8.10;100.00
35989;BME280;22064;42.672;23.282;2024-03-02T07:18:58;94147.50;;;8.19;100.00
35989;BME280;22064;42.672;23.282;2024-03-02T07:21:38;94147.28;;;8.44;100.00
35989;BME280;22064;42.672;23.282;2024-03-02T07:24:16;94146.84;;;8.37;100.00
35989;BME280;22064;42.672;23.282;2024-03-02T07:27:11;94141.47;;;8.52;100.00
35989;BME280;22064;42.672;23.282;2024-03-02T07:29:40;94139.56;;;8.58;100.00
35989;BME280;22064;42.672;23.282;2024-03-02T07:32:29;94152.69;;;8.87;100.00
35989;BME280;22064;42.672;23.282;2024-03-02T07:35:18;94150.22;;;8.67;100.00
35989;BME280;22064;42.672;23.282;2024-03-02T07:38:10;94155.25;;;8.63;100.00
35989;BME280;22064;42.672;23.282;2024-03-02T07:40:42;94157.66;;;8.54;100.00
35989;BME280;22064;42.672;23.282;2024-03-02T07:43:10;94159.81;;;8.47;100.00
35989;BME280;22064;42.672;23.282;2024-03-02T07:45:48;94156.81;;;8.30;100.00
35989;BME280;22064;42.672;23.282;2024-03-02T07:48:41;94167.59;;;8.23;100.00
35989;BME280;22064;42.672;23.282;2024-03-02T07:51:36;94163.97;;;8.19;100.00
35989;BME280;22064;42.672;23.282;2024-03-02T07:54:07;94167.25;;;8.35;100.00
35989;BME280;22064;42.672;23.282;2024-03-02T07:56:42;94165.19;;;8.32;100.00
35989;BME280;22064;42.672;23.282;2024-03-02T07:59:19;94166.91;;;8.07;100.00
35989;BME280;22064;42.672;23.282;2024-03-02T08:01:49;94164.66;;;8.30;100.00
35989;BME280;22064;42.672;23.282;2024-03-02T08:04:17;94161.31;;;8.24;100.00
35989;BME280;22064;42.672;23.282;2024-03-02T08:06:51;94167.09;;;8.55;100.00
35989;BME280;22064;42.672;23.282;2024-03-02T08:09:25;94175.56;;;8.42;100.00
35989;BME280;22064;42.672;23.282;2024-03-02T08:12:01;94174.31;;;8.34;100.00
35989;BME280;22064;42.672;23.282;2024-03-02T08:14:31;94175.44;;;8.23;100.00
35989;BME280;22064;42.672;23.282;2024-03-02T08:16:58;94177.00;;;8.24;100.00
35989;BME280;22064;42.672;23.282;2024-03-02T08:19:52;94175.59;;;8.03;100.00
35989;BME280;22064;42.672;23.282;2024-03-02T08:22:29;94174.19;;;8.16;100.00
35989;BME280;22064;42.672;23.282;2024-03-02T08:25:05;94170.38;;;8.37;100.00
35989;BME280;22064;42.672;23.282;2024-03-02T08:27:42;94173.25;;;8.35;100.00
35989;BME280;22064;42.672;23.282;2024-03-02T08:30:12;94170.97;;;8.58;100.00
35989;BME280;22064;42.672;23.282;2024-03-02T08:32:43;94166.91;;;8.76;100.00
35989;BME280;22064;42.672;23.282;2024-03-02T08:35:26;94176.41;;;8.67;100.00
35989;BME280;22064;42.672;23.282;2024-03-02T08:38:12;94175.28;;;8.78;100.00
35989;BME280;22064;42.672;23.282;2024-03-02T08:40:50;94171.53;;;8.89;100.00
35989;BME280;22064;42.672;23.282;2024-03-02T08:43:29;94171.81;;;8.82;100.00
35989;BME280;22064;42.672;23.282;2024-03-02T08:46:03;94173.81;;;8.96;100.00
35989;BME280;22064;42.672;23.282;2024-03-02T08:48:29;94167.50;;;9.26;100.00
35989;BME280;22064;42.672;23.282;2024-03-02T08:50:56;94170.41;;;9.48;100.00
35989;BME280;22064;42.672;23.282;2024-03-02T08:53:33;94176.66;;;9.71;100.00
35989;BME280;22064;42.672;23.282;2024-03-02T08:56:04;94175.19;;;9.84;100.00
35989;BME280;22064;42.672;23.282;2024-03-02T08:58:55;94166.13;;;9.77;100.00
35989;BME280;22064;42.672;23.282;2024-03-02T09:01:33;94175.44;;;9.64;100.00
35989;BME280;22064;42.672;23.282;2024-03-02T09:04:12;94173.47;;;9.56;100.00
35989;BME280;22064;42.672;23.282;2024-03-02T09:06:49;94165.75;;;9.64;100.00
35989;BME280;22064;42.672;23.282;2024-03-02T09:09:15;94177.31;;;9.82;100.00
35989;BME280;22064;42.672;23.282;2024-03-02T09:11:41;94174.00;;;9.77;100.00
35989;BME280;22064;42.672;23.282;2024-03-02T09:14:17;94176.88;;;9.75;100.00
35989;BME280;22064;42.672;23.282;2024-03-02T09:16:45;94185.34;;;10.10;100.00
35989;BME280;22064;42.672;23.282;2024-03-02T09:19:24;94191.66;;;10.47;100.00
35989;BME280;22064;42.672;23.282;2024-03-02T09:21:56;94191.81;;;10.55;100.00
35989;BME280;22064;42.672;23.282;2024-03-02T09:27:08;94190.00;;;10.70;100.00
35989;BME280;22064;42.672;23.282;2024-03-02T09:29:34;94189.38;;;10.92;100.00
35989;BME280;22064;42.672;23.282;2024-03-02T09:32:22;94186.38;;;10.98;100.00
35989;BME280;22064;42.672;23.282;2024-03-02T09:35:12;94189.22;;;11.16;100.00
35989;BME280;22064;42.672;23.282;2024-03-02T09:38:00;94192.22;;;11.09;99.00
35989;BME280;22064;42.672;23.282;2024-03-02T09:40:29;94192.16;;;11.14;97.45
35989;BME280;22064;42.672;23.282;2024-03-02T09:43:12;94198.06;;;11.20;96.95
35989;BME280;22064;42.672;23.282;2024-03-02T09:45:41;94193.13;;;11.18;97.08
35989;BME280;22064;42.672;23.282;2024-03-02T09:48:07;94178.06;;;10.91;86.69
35989;BME280;22064;42.672;23.282;2024-03-02T09:50:45;94202.94;;;10.99;84.96
35989;BME280;22064;42.672;23.282;2024-03-02T09:53:11;94199.16;;;11.05;82.92
35989;BME280;22064;42.672;23.282;2024-03-02T09:56:00;94196.38;;;11.29;85.07
35989;BME280;22064;42.672;23.282;2024-03-02T09:58:40;94204.56;;;11.41;89.34
35989;BME280;22064;42.672;23.282;2024-03-02T10:01:14;94198.53;;;11.54;84.98
35989;BME280;22064;42.672;23.282;2024-03-02T10:03:45;94201.94;;;11.41;84.32
35989;BME280;22064;42.672;23.282;2024-03-02T10:06:25;94195.13;;;11.40;80.73
35989;BME280;22064;42.672;23.282;2024-03-02T10:08:54;94195.78;;;11.32;83.24
35989;BME280;22064;42.672;23.282;2024-03-02T10:11:35;94196.91;;;11.12;83.21
35989;BME280;22064;42.672;23.282;2024-03-02T10:14:13;94189.66;;;10.01;96.28
35989;BME280;22064;42.672;23.282;2024-03-02T10:16:49;94190.50;;;9.77;100.00
35989;BME280;22064;42.672;23.282;2024-03-02T10:19:23;94188.78;;;8.90;100.00
35989;BME280;22064;42.672;23.282;2024-03-02T10:21:55;94192.59;;;8.00;100.00
35989;BME280;22064;42.672;23.282;2024-03-02T10:24:43;94196.34;;;7.84;100.00
35989;BME280;22064;42.672;23.282;2024-03-02T10:27:42;94182.47;;;8.28;100.00
35989;BME280;22064;42.672;23.282;2024-03-02T10:30:11;94191.25;;;8.47;100.00
35989;BME280;22064;42.672;23.282;2024-03-02T10:32:40;94179.41;;;8.16;100.00
35989;BME280;22064;42.672;23.282;2024-03-02T10:35:22;94188.47;;;8.33;100.00
35989;BME280;22064;42.672;23.282;2024-03-02T10:37:56;94179.53;;;7.95;100.00
35989;BME280;22064;42.672;23.282;2024-03-02T10:40:26;94179.06;;;7.88;100.00
35989;BME280;22064;42.672;23.282;2024-03-02T10:43:01;94196.81;;;7.96;100.00
35989;BME280;22064;42.672;23.282;2024-03-02T10:45:29;94184.63;;;8.21;100.00
35989;BME280;22064;42.672;23.282;2024-03-02T10:48:08;94181.84;;;8.41;100.00
35989;BME280;22064;42.672;23.282;2024-03-02T10:50:45;94176.66;;;7.97;100.00
35989;BME280;22064;42.672;23.282;2024-03-02T10:53:25;94173.09;;;7.72;100.00
35989;BME280;22064;42.672;23.282;2024-03-02T10:55:58;94178.44;;;7.47;100.00
35989;BME280;22064;42.672;23.282;2024-03-02T10:58:34;94182.16;;;7.95;100.00
35989;BME280;22064;42.672;23.282;2024-03-02T11:01:16;94179.06;;;7.88;100.00
35989;BME280;22064;42.672;23.282;2024-03-02T11:04:08;94173.66;;;8.53;100.00
35989;BME280;22064;42.672;23.282;2024-03-02T11:06:36;94179.34;;;8.60;100.00
35989;BME280;22064;42.672;23.282;2024-03-02T11:09:09;94174.53;;;8.72;100.00
35989;BME280;22064;42.672;23.282;2024-03-02T11:11:55;94171.19;;;8.96;100.00
35989;BME280;22064;42.672;23.282;2024-03-02T11:14:31;94169.78;;;9.09;100.00
35989;BME280;22064;42.672;23.282;2024-03-02T11:17:14;94160.88;;;9.34;100.00
35989;BME280;22064;42.672;23.282;2024-03-02T11:19:50;94165.88;;;9.06;100.00
35989;BME280;22064;42.672;23.282;2024-03-02T11:22:21;94163.88;;;9.46;100.00
35989;BME280;22064;42.672;23.282;2024-03-02T11:24:50;94169.34;;;9.49;100.00
35989;BME280;22064;42.672;23.282;2024-03-02T11:33:07;94165.38;;;9.28;100.00
35989;BME280;22064;42.672;23.282;2024-03-02T11:35:43;94166.94;;;9.00;100.00
35989;BME280;22064;42.672;23.282;2024-03-02T11:38:33;94160.50;;;8.29;100.00
35989;BME280;22064;42.672;23.282;2024-03-02T11:41:14;94167.22;;;8.98;100.00
35989;BME280;22064;42.672;23.282;2024-03-02T11:43:42;94167.53;;;9.45;100.00
35989;BME280;22064;42.672;23.282;2024-03-02T11:46:12;94163.31;;;9.49;100.00
35989;BME280;22064;42.672;23.282;2024-03-02T11:48:41;94168.78;;;9.52;100.00
35989;BME280;22064;42.672;23.282;2024-03-02T11:51:10;94161.72;;;9.72;100.00
35989;BME280;22064;42.672;23.282;2024-03-02T11:53:58;94154.78;;;9.81;100.00
35989;BME280;22064;42.672;23.282;2024-03-02T11:56:41;94164.84;;;9.93;100.00
35989;BME280;22064;42.672;23.282;2024-03-02T11:59:11;94162.66;;;9.81;100.00
35989;BME280;22064;42.672;23.282;2024-03-02T12:01:51;94157.56;;;9.90;100.00
35989;BME280;22064;42.672;23.282;2024-03-02T12:04:31;94161.38;;;9.97;100.00
35989;BME280;22064;42.672;23.282;2024-03-02T12:07:07;94163.28;;;9.92;100.00
35989;BME280;22064;42.672;23.282;2024-03-02T12:09:38;94160.44;;;9.88;100.00
35989;BME280;22064;42.672;23.282;2024-03-02T12:14:41;94163.22;;;10.16;100.00
35989;BME280;22064;42.672;23.282;2024-03-02T12:17:17;94166.28;;;10.23;100.00
35989;BME280;22064;42.672;23.282;2024-03-02T12:19:46;94159.41;;;9.89;100.00
35989;BME280;22064;42.672;23.282;2024-03-02T12:22:38;94170.53;;;10.19;100.00
35989;BME280;22064;42.672;23.282;2024-03-02T12:25:05;94164.31;;;10.34;100.00
35989;BME280;22064;42.672;23.282;2024-03-02T12:27:54;94167.56;;;10.26;100.00
35989;BME280;22064;42.672;23.282;2024-03-02T12:30:41;94165.13;;;10.29;100.00
35989;BME280;22064;42.672;23.282;2024-03-02T12:33:11;94159.78;;;10.53;100.00
35989;BME280;22064;42.672;23.282;2024-03-02T12:35:40;94153.22;;;10.70;100.00
35989;BME280;22064;42.672;23.282;2024-03-02T12:38:11;94158.19;;;10.71;100.00
35989;BME280;22064;42.672;23.282;2024-03-02T12:40:41;94159.88;;;10.81;100.00
35989;BME280;22064;42.672;23.282;2024-03-02T12:43:35;94160.31;;;10.36;100.00
35989;BME280;22064;42.672;23.282;2024-03-02T12:46:03;94151.53;;;10.60;100.00
35989;BME280;22064;42.672;23.282;2024-03-02T12:48:45;94160.94;;;10.80;100.00
35989;BME280;22064;42.672;23.282;2024-03-02T12:51:12;94163.78;;;10.97;100.00
35989;BME280;22064;42.672;23.282;2024-03-02T12:53:38;94152.22;;;11.12;100.00
35989;BME280;22064;42.672;23.282;2024-03-02T12:56:08;94163.41;;;11.04;100.00
35989;BME280;22064;42.672;23.282;2024-03-02T12:58:41;94157.75;;;10.97;100.00
35989;BME280;22064;42.672;23.282;2024-03-02T13:01:07;94158.13;;;10.90;100.00
35989;BME280;22064;42.672;23.282;2024-03-02T13:03:43;94163.97;;;11.01;100.00
35989;BME280;22064;42.672;23.282;2024-03-02T13:06:11;94158.59;;;10.78;100.00
35989;BME280;22064;42.672;23.282;2024-03-02T13:08:40;94168.72;;;10.85;100.00
35989;BME280;22064;42.672;23.282;2024-03-02T13:11:17;94164.34;;;10.80;100.00
35989;BME280;22064;42.672;23.282;2024-03-02T13:13:51;94164.66;;;10.60;100.00
35989;BME280;22064;42.672;23.282;2024-03-02T13:16:39;94166.50;;;10.46;100.00
35989;BME280;22064;42.672;23.282;2024-03-02T13:19:21;94173.06;;;10.62;100.00
35989;BME280;22064;42.672;23.282;2024-03-02T13:21:50;94163.44;;;10.71;100.00
35989;BME280;22064;42.672;23.282;2024-03-02T13:24:25;94164.03;;;10.68;100.00
35989;BME280;22064;42.672;23.282;2024-03-02T13:27:01;94168.91;;;10.88;100.00
35989;BME280;22064;42.672;23.282;2024-03-02T13:29:46;94173.06;;;10.76;100.00
35989;BME280;22064;42.672;23.282;2024-03-02T13:32:55;94174.59;;;10.63;100.00
35989;BME280;22064;42.672;23.282;2024-03-02T13:35:29;94174.09;;;10.80;100.00
35989;BME280;22064;42.672;23.282;2024-03-02T13:37:55;94176.72;;;10.94;100.00
35989;BME280;22064;42.672;23.282;2024-03-02T13:40:31;94176.75;;;11.07;100.00